sensor_id;sensor_type;location;lat;lon;timestamp;P1;durP1;ratioP1;P2;durP2;ratioP2
57778;SDS011;43608;49.486;9.640;2024-03-02T00:00:26;9.13;;;6.85;;
57778;SDS011;43608;49.486;9.640;2024-03-02T00:00:57;9.35;;;6.82;;
57778;SDS011;43608;49.486;9.640;2024-03-02T00:01:27;10.65;;;7.18;;
57778;SDS011;43608;49.486;9.640;2024-03-02T00:01:58;9.00;;;6.65;;
57778;SDS011;43608;49.486;9.640;2024-03-02T00:02:28;9.25;;;6.55;;
57778;SDS011;43608;49.486;9.640;2024-03-02T00:02:58;9.73;;;6.88;;
57778;SDS011;43608;49.486;9.640;2024-03-02T00:03:29;8.65;;;6.50;;
57778;SDS011;43608;49.486;9.640;2024-03-02T00:03:59;8.95;;;6.47;;
57778;SDS011;43608;49.486;9.640;2024-03-02T00:04:29;9.90;;;7.00;;
57778;SDS011;43608;49.486;9.640;2024-03-02T00:05:00;10.23;;;7.40;;
57778;SDS011;43608;49.486;9.640;2024-03-02T00:05:32;8.52;;;6.47;;
57778;SDS011;43608;49.486;9.640;2024-03-02T00:06:02;9.80;;;7.07;;
57778;SDS011;43608;49.486;9.640;2024-03-02T00:06:33;9.70;;;7.00;;
57778;SDS011;43608;49.486;9.640;2024-03-02T00:07:04;9.10;;;6.53;;
57778;SDS011;43608;49.486;9.640;2024-03-02T00:07:36;10.63;;;6.50;;
57778;SDS011;43608;49.486;9.640;2024-03-02T00:08:06;9.38;;;6.45;;
57778;SDS011;43608;49.486;9.640;2024-03-02T00:08:38;8.55;;;6.18;;
57778;SDS011;43608;49.486;9.640;2024-03-02T00:09:08;9.25;;;6.20;;
57778;SDS011;43608;49.486;9.640;2024-03-02T00:09:42;8.88;;;6.22;;
57778;SDS011;43608;49.486;9.640;2024-03-02T00:10:14;8.80;;;6.13;;
57778;SDS011;43608;49.486;9.640;2024-03-02T00:10:49;9.02;;;6.40;;
57778;SDS011;43608;49.486;9.640;2024-03-02T00:11:20;10.00;;;6.65;;
57778;SDS011;43608;49.486;9.640;2024-03-02T00:11:50;9.80;;;6.63;;
57778;SDS011;43608;49.486;9.640;2024-03-02T00:12:20;9.88;;;6.38;;
57778;SDS011;43608;49.486;9.640;2024-03-02T00:12:51;9.35;;;6.50;;
57778;SDS011;43608;49.486;9.640;2024-03-02T00:13:22;9.57;;;6.63;;
57778;SDS011;43608;49.486;9.640;2024-03-02T00:13:53;8.38;;;6.30;;
57778;SDS011;43608;49.486;9.640;2024-03-02T00:14:24;9.95;;;7.15;;
57778;SDS011;43608;49.486;9.640;2024-03-02T00:14:54;9.27;;;6.70;;
57778;SDS011;43608;49.486;9.640;2024-03-02T00:16:18;10.40;;;6.85;;
57778;SDS011;43608;49.486;9.640;2024-03-02T00:16:50;10.10;;;6.60;;
57778;SDS011;43608;49.486;9.640;2024-03-02T00:17:24;10.07;;;7.28;;
57778;SDS011;43608;49.486;9.640;2024-03-02T00:17:57;9.25;;;6.88;;
57778;SDS011;43608;49.486;9.640;2024-03-02T00:18:32;8.70;;;6.47;;
57778;SDS011;43608;49.486;9.640;2024-03-02T00:19:05;8.85;;;6.35;;
57778;SDS011;43608;49.486;9.640;2024-03-02T00:19:38;9.57;;;6.75;;
57778;SDS011;43608;49.486;9.640;2024-03-02T00:20:09;9.35;;;6.50;;
57778;SDS011;43608;49.486;9.640;2024-03-02T00:20:40;10.02;;;6.70;;
57778;SDS011;43608;49.486;9.640;2024-03-02T00:21:11;8.93;;;6.53;;
57778;SDS011;43608;49.486;9.640;2024-03-02T00:21:43;10.25;;;6.97;;
57778;SDS011;43608;49.486;9.640;2024-03-02T00:22:13;9.82;;;6.95;;
57778;SDS011;43608;49.486;9.640;2024-03-02T00:22:44;8.55;;;7.00;;
57778;SDS011;43608;49.486;9.640;2024-03-02T00:23:15;9.40;;;6.63;;
57778;SDS011;43608;49.486;9.640;2024-03-02T00:23:47;9.10;;;6.45;;
57778;SDS011;43608;49.486;9.640;2024-03-02T00:24:24;11.60;;;7.00;;
57778;SDS011;43608;49.486;9.640;2024-03-02T00:25:04;10.18;;;6.55;;
57778;SDS011;43608;49.486;9.640;2024-03-02T00:25:38;10.52;;;6.70;;
57778;SDS011;43608;49.486;9.640;2024-03-02T00:26:13;9.52;;;6.40;;
57778;SDS011;43608;49.486;9.640;2024-03-02T00:26:45;9.88;;;6.82;;
57778;SDS011;43608;49.486;9.640;2024-03-02T00:27:16;10.13;;;7.00;;
57778;SDS011;43608;49.486;9.640;2024-03-02T00:27:49;9.52;;;6.90;;
57778;SDS011;43608;49.486;9.640;2024-03-02T00:28:23;9.77;;;6.93;;
57778;SDS011;43608;49.486;9.640;2024-03-02T00:28:58;9.60;;;7.22;;
57778;SDS011;43608;49.486;9.640;2024-03-02T00:29:30;9.77;;;6.93;;
57778;SDS011;43608;49.486;9.640;2024-03-02T00:30:01;9.32;;;7.15;;
57778;SDS011;43608;49.486;9.640;2024-03-02T00:31:27;8.68;;;6.70;;
57778;SDS011;43608;49.486;9.640;2024-03-02T00:31:57;11.35;;;7.78;;
57778;SDS011;43608;49.486;9.640;2024-03-02T00:32:35;11.68;;;7.75;;
57778;SDS011;43608;49.486;9.640;2024-03-02T00:33:08;11.18;;;7.20;;
57778;SDS011;43608;49.486;9.640;2024-03-02T00:33:43;10.38;;;7.35;;
57778;SDS011;43608;49.486;9.640;2024-03-02T00:34:15;10.35;;;6.95;;
57778;SDS011;43608;49.486;9.640;2024-03-02T00:34:47;9.60;;;6.88;;
57778;SDS011;43608;49.486;9.640;2024-03-02T00:35:18;10.80;;;7.40;;
57778;SDS011;43608;49.486;9.640;2024-03-02T00:35:50;9.30;;;6.72;;
57778;SDS011;43608;49.486;9.640;2024-03-02T00:36:24;11.45;;;6.95;;
57778;SDS011;43608;49.486;9.640;2024-03-02T00:36:57;9.65;;;6.85;;
57778;SDS011;43608;49.486;9.640;2024-03-02T00:37:29;10.88;;;7.00;;
57778;SDS011;43608;49.486;9.640;2024-03-02T00:38:03;9.48;;;6.72;;
57778;SDS011;43608;49.486;9.640;2024-03-02T00:38:54;9.30;;;6.93;;
57778;SDS011;43608;49.486;9.640;2024-03-02T00:39:25;9.63;;;6.78;;
57778;SDS011;43608;49.486;9.640;2024-03-02T00:39:55;9.73;;;7.00;;
57778;SDS011;43608;49.486;9.640;2024-03-02T00:40:27;9.98;;;6.97;;
57778;SDS011;43608;49.486;9.640;2024-03-02T00:41:00;11.00;;;7.13;;
57778;SDS011;43608;49.486;9.640;2024-03-02T00:41:34;9.35;;;6.53;;
57778;SDS011;43608;49.486;9.640;2024-03-02T00:42:05;9.70;;;7.15;;
57778;SDS011;43608;49.486;9.640;2024-03-02T00:42:36;10.02;;;7.18;;
57778;SDS011;43608;49.486;9.640;2024-03-02T00:43:09;9.68;;;6.72;;
57778;SDS011;43608;49.486;9.640;2024-03-02T00:44:33;9.30;;;6.93;;
57778;SDS011;43608;49.486;9.640;2024-03-02T00:45:08;10.38;;;7.22;;
57778;SDS011;43608;49.486;9.640;2024-03-02T00:45:39;9.65;;;7.13;;
57778;SDS011;43608;49.486;9.640;2024-03-02T00:46:15;9.48;;;7.15;;
57778;SDS011;43608;49.486;9.640;2024-03-02T00:46:46;9.95;;;6.93;;
57778;SDS011;43608;49.486;9.640;2024-03-02T00:47:17;10.05;;;7.03;;
57778;SDS011;43608;49.486;9.640;2024-03-02T00:47:48;9.35;;;6.90;;
57778;SDS011;43608;49.486;9.640;2024-03-02T00:48:19;9.00;;;6.60;;
57778;SDS011;43608;49.486;9.640;2024-03-02T00:48:53;9.48;;;6.93;;
57778;SDS011;43608;49.486;9.640;2024-03-02T00:49:24;9.68;;;7.13;;
57778;SDS011;43608;49.486;9.640;2024-03-02T00:49:56;9.73;;;6.57;;
57778;SDS011;43608;49.486;9.640;2024-03-02T00:50:26;9.07;;;6.40;;
57778;SDS011;43608;49.486;9.640;2024-03-02T00:50:56;9.45;;;6.68;;
57778;SDS011;43608;49.486;9.640;2024-03-02T00:51:28;10.07;;;6.40;;
57778;SDS011;43608;49.486;9.640;2024-03-02T00:52:00;9.18;;;6.32;;
57778;SDS011;43608;49.486;9.640;2024-03-02T00:52:31;9.25;;;6.75;;
57778;SDS011;43608;49.486;9.640;2024-03-02T00:53:03;9.73;;;6.75;;
57778;SDS011;43608;49.486;9.640;2024-03-02T00:53:33;10.40;;;7.10;;
57778;SDS011;43608;49.486;9.640;2024-03-02T00:54:05;8.85;;;6.63;;
57778;SDS011;43608;49.486;9.640;2024-03-02T00:54:37;9.52;;;6.78;;
57778;SDS011;43608;49.486;9.640;2024-03-02T00:55:08;8.98;;;6.72;;
57778;SDS011;43608;49.486;9.640;2024-03-02T00:55:38;8.52;;;6.40;;
57778;SDS011;43608;49.486;9.640;2024-03-02T00:56:14;9.80;;;6.97;;
57778;SDS011;43608;49.486;9.640;2024-03-02T00:56:44;8.20;;;6.53;;
57778;SDS011;43608;49.486;9.640;2024-03-02T00:57:15;9.00;;;6.60;;
57778;SDS011;43608;49.486;9.640;2024-03-02T00:57:45;9.15;;;6.70;;
57778;SDS011;43608;49.486;9.640;2024-03-02T00:58:15;8.65;;;6.32;;
57778;SDS011;43608;49.486;9.640;2024-03-02T00:58:46;9.38;;;6.72;;
57778;SDS011;43608;49.486;9.640;2024-03-02T00:59:16;9.20;;;6.40;;
57778;SDS011;43608;49.486;9.640;2024-03-02T00:59:47;8.90;;;6.40;;
57778;SDS011;43608;49.486;9.640;2024-03-02T01:00:18;8.82;;;6.60;;
57778;SDS011;43608;49.486;9.640;2024-03-02T01:00:49;9.40;;;6.43;;
57778;SDS011;43608;49.486;9.640;2024-03-02T01:01:19;8.73;;;6.43;;
57778;SDS011;43608;49.486;9.640;2024-03-02T01:01:50;8.90;;;6.53;;
57778;SDS011;43608;49.486;9.640;2024-03-02T01:02:20;8.20;;;6.35;;
57778;SDS011;43608;49.486;9.640;2024-03-02T01:02:51;10.18;;;6.78;;
57778;SDS011;43608;49.486;9.640;2024-03-02T01:03:21;9.27;;;6.50;;
57778;SDS011;43608;49.486;9.640;2024-03-02T01:03:52;9.68;;;6.57;;
57778;SDS011;43608;49.486;9.640;2024-03-02T01:04:22;8.95;;;6.20;;
57778;SDS011;43608;49.486;9.640;2024-03-02T01:04:53;8.63;;;6.15;;
57778;SDS011;43608;49.486;9.640;2024-03-02T01:05:23;8.63;;;6.15;;
57778;SDS011;43608;49.486;9.640;2024-03-02T01:05:53;8.63;;;6.20;;
57778;SDS011;43608;49.486;9.640;2024-03-02T01:06:24;8.85;;;6.47;;
57778;SDS011;43608;49.486;9.640;2024-03-02T01:06:54;9.40;;;6.60;;
57778;SDS011;43608;49.486;9.640;2024-03-02T01:07:25;9.75;;;6.57;;
57778;SDS011;43608;49.486;9.640;2024-03-02T01:07:55;7.65;;;5.85;;
57778;SDS011;43608;49.486;9.640;2024-03-02T01:08:25;8.40;;;6.28;;
57778;SDS011;43608;49.486;9.640;2024-03-02T01:08:56;9.45;;;6.80;;
57778;SDS011;43608;49.486;9.640;2024-03-02T01:09:26;9.55;;;6.93;;
57778;SDS011;43608;49.486;9.640;2024-03-02T01:09:57;8.50;;;5.95;;
57778;SDS011;43608;49.486;9.640;2024-03-02T01:10:27;9.40;;;6.63;;
57778;SDS011;43608;49.486;9.640;2024-03-02T01:10:58;8.65;;;6.30;;
57778;SDS011;43608;49.486;9.640;2024-03-02T01:11:28;8.00;;;6.13;;
57778;SDS011;43608;49.486;9.640;2024-03-02T01:12:00;8.13;;;6.07;;
57778;SDS011;43608;49.486;9.640;2024-03-02T01:12:30;9.30;;;6.63;;
57778;SDS011;43608;49.486;9.640;2024-03-02T01:13:01;8.88;;;6.50;;
57778;SDS011;43608;49.486;9.640;2024-03-02T01:13:31;8.85;;;6.47;;
57778;SDS011;43608;49.486;9.640;2024-03-02T01:14:02;9.18;;;6.60;;
57778;SDS011;43608;49.486;9.640;2024-03-02T01:14:32;8.63;;;6.30;;
57778;SDS011;43608;49.486;9.640;2024-03-02T01:15:03;9.48;;;6.57;;
57778;SDS011;43608;49.486;9.640;2024-03-02T01:15:35;9.45;;;6.20;;
57778;SDS011;43608;49.486;9.640;2024-03-02T01:16:06;8.65;;;6.25;;
57778;SDS011;43608;49.486;9.640;2024-03-02T01:16:36;9.52;;;6.38;;
57778;SDS011;43608;49.486;9.640;2024-03-02T01:17:07;10.30;;;6.95;;
57778;SDS011;43608;49.486;9.640;2024-03-02T01:17:37;8.13;;;6.10;;
57778;SDS011;43608;49.486;9.640;2024-03-02T01:18:07;10.13;;;6.93;;
57778;SDS011;43608;49.486;9.640;2024-03-02T01:18:38;9.80;;;6.97;;
57778;SDS011;43608;49.486;9.640;2024-03-02T01:19:09;10.05;;;7.07;;
57778;SDS011;43608;49.486;9.640;2024-03-02T01:19:41;8.60;;;6.18;;
57778;SDS011;43608;49.486;9.640;2024-03-02T01:20:11;9.77;;;6.75;;
57778;SDS011;43608;49.486;9.640;2024-03-02T01:20:42;9.07;;;7.00;;
57778;SDS011;43608;49.486;9.640;2024-03-02T01:21:12;9.00;;;6.47;;
57778;SDS011;43608;49.486;9.640;2024-03-02T01:21:43;9.50;;;7.03;;
57778;SDS011;43608;49.486;9.640;2024-03-02T01:22:13;9.10;;;6.32;;
57778;SDS011;43608;49.486;9.640;2024-03-02T01:22:44;11.18;;;6.90;;
57778;SDS011;43608;49.486;9.640;2024-03-02T01:23:14;9.00;;;6.55;;
57778;SDS011;43608;49.486;9.640;2024-03-02T01:23:44;9.85;;;6.65;;
57778;SDS011;43608;49.486;9.640;2024-03-02T01:24:15;9.15;;;6.78;;
57778;SDS011;43608;49.486;9.640;2024-03-02T01:24:45;8.52;;;6.30;;
57778;SDS011;43608;49.486;9.640;2024-03-02T01:25:15;8.40;;;6.43;;
57778;SDS011;43608;49.486;9.640;2024-03-02T01:25:46;9.23;;;6.35;;
57778;SDS011;43608;49.486;9.640;2024-03-02T01:26:17;9.75;;;6.93;;
57778;SDS011;43608;49.486;9.640;2024-03-02T01:26:47;10.05;;;6.60;;
57778;SDS011;43608;49.486;9.640;2024-03-02T01:27:18;8.50;;;6.57;;
57778;SDS011;43608;49.486;9.640;2024-03-02T01:27:48;9.32;;;6.45;;
57778;SDS011;43608;49.486;9.640;2024-03-02T01:28:19;9.60;;;6.63;;
57778;SDS011;43608;49.486;9.640;2024-03-02T01:28:50;8.40;;;6.53;;
57778;SDS011;43608;49.486;9.640;2024-03-02T01:29:21;9.75;;;6.97;;
57778;SDS011;43608;49.486;9.640;2024-03-02T01:29:51;9.70;;;6.78;;
57778;SDS011;43608;49.486;9.640;2024-03-02T01:30:21;9.82;;;6.53;;
57778;SDS011;43608;49.486;9.640;2024-03-02T01:30:51;9.50;;;6.70;;
57778;SDS011;43608;49.486;9.640;2024-03-02T01:31:22;9.68;;;6.65;;
57778;SDS011;43608;49.486;9.640;2024-03-02T01:31:53;9.73;;;6.72;;
57778;SDS011;43608;49.486;9.640;2024-03-02T01:32:23;10.10;;;6.63;;
57778;SDS011;43608;49.486;9.640;2024-03-02T01:32:54;10.50;;;7.55;;
57778;SDS011;43608;49.486;9.640;2024-03-02T01:33:24;9.00;;;6.75;;
57778;SDS011;43608;49.486;9.640;2024-03-02T01:33:54;9.52;;;6.47;;
57778;SDS011;43608;49.486;9.640;2024-03-02T01:34:25;8.60;;;6.32;;
57778;SDS011;43608;49.486;9.640;2024-03-02T01:34:55;9.10;;;6.90;;
57778;SDS011;43608;49.486;9.640;2024-03-02T01:35:26;9.20;;;6.60;;
57778;SDS011;43608;49.486;9.640;2024-03-02T01:35:56;10.40;;;6.85;;
57778;SDS011;43608;49.486;9.640;2024-03-02T01:36:27;9.38;;;6.82;;
57778;SDS011;43608;49.486;9.640;2024-03-02T01:36:57;8.88;;;6.60;;
57778;SDS011;43608;49.486;9.640;2024-03-02T01:37:27;8.82;;;6.68;;
57778;SDS011;43608;49.486;9.640;2024-03-02T01:37:58;9.93;;;6.82;;
57778;SDS011;43608;49.486;9.640;2024-03-02T01:38:28;9.60;;;6.95;;
57778;SDS011;43608;49.486;9.640;2024-03-02T01:38:58;9.75;;;6.70;;
57778;SDS011;43608;49.486;9.640;2024-03-02T01:39:29;8.88;;;6.47;;
57778;SDS011;43608;49.486;9.640;2024-03-02T01:39:59;9.75;;;6.60;;
57778;SDS011;43608;49.486;9.640;2024-03-02T01:40:29;9.15;;;6.57;;
57778;SDS011;43608;49.486;9.640;2024-03-02T01:41:00;9.20;;;6.20;;
57778;SDS011;43608;49.486;9.640;2024-03-02T01:41:30;8.73;;;6.40;;
57778;SDS011;43608;49.486;9.640;2024-03-02T01:42:01;9.43;;;6.63;;
57778;SDS011;43608;49.486;9.640;2024-03-02T01:42:31;10.27;;;6.75;;
57778;SDS011;43608;49.486;9.640;2024-03-02T01:43:03;9.70;;;6.53;;
57778;SDS011;43608;49.486;9.640;2024-03-02T01:43:34;9.93;;;6.70;;
57778;SDS011;43608;49.486;9.640;2024-03-02T01:44:04;9.95;;;7.10;;
57778;SDS011;43608;49.486;9.640;2024-03-02T01:44:35;11.05;;;7.13;;
57778;SDS011;43608;49.486;9.640;2024-03-02T01:45:05;10.05;;;6.90;;
57778;SDS011;43608;49.486;9.640;2024-03-02T01:45:37;8.68;;;6.80;;
57778;SDS011;43608;49.486;9.640;2024-03-02T01:46:08;8.60;;;6.20;;
57778;SDS011;43608;49.486;9.640;2024-03-02T01:46:39;10.05;;;7.00;;
57778;SDS011;43608;49.486;9.640;2024-03-02T01:47:09;9.65;;;6.63;;
57778;SDS011;43608;49.486;9.640;2024-03-02T01:47:40;10.23;;;6.80;;
57778;SDS011;43608;49.486;9.640;2024-03-02T01:48:10;9.43;;;6.78;;
57778;SDS011;43608;49.486;9.640;2024-03-02T01:48:41;9.82;;;7.00;;
57778;SDS011;43608;49.486;9.640;2024-03-02T01:49:11;11.05;;;6.93;;
57778;SDS011;43608;49.486;9.640;2024-03-02T01:49:41;10.27;;;7.00;;
57778;SDS011;43608;49.486;9.640;2024-03-02T01:50:12;9.38;;;6.50;;
57778;SDS011;43608;49.486;9.640;2024-03-02T01:50:43;9.52;;;6.68;;
57778;SDS011;43608;49.486;9.640;2024-03-02T01:51:13;9.43;;;6.45;;
57778;SDS011;43608;49.486;9.640;2024-03-02T01:51:44;9.70;;;6.68;;
57778;SDS011;43608;49.486;9.640;2024-03-02T01:52:15;9.20;;;6.57;;
57778;SDS011;43608;49.486;9.640;2024-03-02T01:52:45;9.32;;;6.68;;
57778;SDS011;43608;49.486;9.640;2024-03-02T01:53:16;9.63;;;6.80;;
57778;SDS011;43608;49.486;9.640;2024-03-02T01:53:46;8.50;;;6.53;;
57778;SDS011;43608;49.486;9.640;2024-03-02T01:54:16;9.98;;;6.93;;
57778;SDS011;43608;49.486;9.640;2024-03-02T01:54:47;9.68;;;6.55;;
57778;SDS011;43608;49.486;9.640;2024-03-02T01:55:17;8.68;;;6.68;;
57778;SDS011;43608;49.486;9.640;2024-03-02T01:55:47;10.13;;;6.78;;
57778;SDS011;43608;49.486;9.640;2024-03-02T01:56:18;8.77;;;6.93;;
57778;SDS011;43608;49.486;9.640;2024-03-02T01:56:48;9.25;;;6.93;;
57778;SDS011;43608;49.486;9.640;2024-03-02T01:57:19;9.73;;;6.80;;
57778;SDS011;43608;49.486;9.640;2024-03-02T01:57:49;10.30;;;7.30;;
57778;SDS011;43608;49.486;9.640;2024-03-02T01:58:24;8.90;;;6.60;;
57778;SDS011;43608;49.486;9.640;2024-03-02T01:58:54;9.30;;;7.00;;
57778;SDS011;43608;49.486;9.640;2024-03-02T01:59:25;9.23;;;6.80;;
57778;SDS011;43608;49.486;9.640;2024-03-02T01:59:55;9.65;;;6.68;;
57778;SDS011;43608;49.486;9.640;2024-03-02T02:00:26;9.20;;;7.00;;
57778;SDS011;43608;49.486;9.640;2024-03-02T02:00:56;9.10;;;7.00;;
57778;SDS011;43608;49.486;9.640;2024-03-02T02:01:26;10.15;;;6.90;;
57778;SDS011;43608;49.486;9.640;2024-03-02T02:01:57;9.82;;;6.70;;
57778;SDS011;43608;49.486;9.640;2024-03-02T02:02:27;9.02;;;6.25;;
57778;SDS011;43608;49.486;9.640;2024-03-02T02:02:58;9.85;;;6.80;;
57778;SDS011;43608;49.486;9.640;2024-03-02T02:03:28;8.68;;;6.38;;
57778;SDS011;43608;49.486;9.640;2024-03-02T02:03:58;8.93;;;6.72;;
57778;SDS011;43608;49.486;9.640;2024-03-02T02:04:29;9.85;;;6.70;;
57778;SDS011;43608;49.486;9.640;2024-03-02T02:04:59;9.75;;;6.85;;
57778;SDS011;43608;49.486;9.640;2024-03-02T02:05:29;8.85;;;6.53;;
57778;SDS011;43608;49.486;9.640;2024-03-02T02:06:01;9.73;;;6.95;;
57778;SDS011;43608;49.486;9.640;2024-03-02T02:06:32;8.95;;;6.57;;
57778;SDS011;43608;49.486;9.640;2024-03-02T02:07:02;8.63;;;6.55;;
57778;SDS011;43608;49.486;9.640;2024-03-02T02:07:33;9.55;;;6.72;;
57778;SDS011;43608;49.486;9.640;2024-03-02T02:08:04;9.13;;;6.65;;
57778;SDS011;43608;49.486;9.640;2024-03-02T02:08:36;10.68;;;6.63;;
57778;SDS011;43608;49.486;9.640;2024-03-02T02:09:07;8.45;;;6.53;;
57778;SDS011;43608;49.486;9.640;2024-03-02T02:09:38;9.20;;;6.75;;
57778;SDS011;43608;49.486;9.640;2024-03-02T02:10:09;8.80;;;6.72;;
57778;SDS011;43608;49.486;9.640;2024-03-02T02:10:40;9.35;;;6.97;;
57778;SDS011;43608;49.486;9.640;2024-03-02T02:11:10;8.80;;;6.35;;
57778;SDS011;43608;49.486;9.640;2024-03-02T02:11:44;9.02;;;6.40;;
57778;SDS011;43608;49.486;9.640;2024-03-02T02:12:14;9.05;;;6.60;;
57778;SDS011;43608;49.486;9.640;2024-03-02T02:12:46;8.80;;;6.60;;
57778;SDS011;43608;49.486;9.640;2024-03-02T02:13:16;10.45;;;6.78;;
57778;SDS011;43608;49.486;9.640;2024-03-02T02:13:47;9.88;;;6.80;;
57778;SDS011;43608;49.486;9.640;2024-03-02T02:14:17;8.68;;;6.30;;
57778;SDS011;43608;49.486;9.640;2024-03-02T02:14:48;8.65;;;6.40;;
57778;SDS011;43608;49.486;9.640;2024-03-02T02:15:53;8.35;;;6.63;;
57778;SDS011;43608;49.486;9.640;2024-03-02T02:16:23;9.10;;;6.65;;
57778;SDS011;43608;49.486;9.640;2024-03-02T02:16:54;8.73;;;6.28;;
57778;SDS011;43608;49.486;9.640;2024-03-02T02:17:24;10.05;;;6.63;;
57778;SDS011;43608;49.486;9.640;2024-03-02T02:17:55;9.20;;;6.65;;
57778;SDS011;43608;49.486;9.640;2024-03-02T02:18:27;9.40;;;6.72;;
57778;SDS011;43608;49.486;9.640;2024-03-02T02:18:57;9.35;;;6.50;;
57778;SDS011;43608;49.486;9.640;2024-03-02T02:19:28;9.40;;;6.78;;
57778;SDS011;43608;49.486;9.640;2024-03-02T02:19:58;9.30;;;6.47;;
57778;SDS011;43608;49.486;9.640;2024-03-02T02:20:29;8.48;;;5.95;;
57778;SDS011;43608;49.486;9.640;2024-03-02T02:20:59;9.45;;;6.72;;
57778;SDS011;43608;49.486;9.640;2024-03-02T02:21:29;8.63;;;6.47;;
57778;SDS011;43608;49.486;9.640;2024-03-02T02:22:00;8.73;;;6.03;;
57778;SDS011;43608;49.486;9.640;2024-03-02T02:22:30;8.30;;;5.97;;
57778;SDS011;43608;49.486;9.640;2024-03-02T02:23:03;10.45;;;6.68;;
57778;SDS011;43608;49.486;9.640;2024-03-02T02:23:35;9.25;;;6.40;;
57778;SDS011;43608;49.486;9.640;2024-03-02T02:24:06;9.40;;;6.25;;
57778;SDS011;43608;49.486;9.640;2024-03-02T02:24:39;8.88;;;6.30;;
57778;SDS011;43608;49.486;9.640;2024-03-02T02:25:13;9.13;;;6.40;;
57778;SDS011;43608;49.486;9.640;2024-03-02T02:25:43;9.95;;;6.32;;
57778;SDS011;43608;49.486;9.640;2024-03-02T02:26:13;9.05;;;6.45;;
57778;SDS011;43608;49.486;9.640;2024-03-02T02:26:44;8.15;;;5.90;;
57778;SDS011;43608;49.486;9.640;2024-03-02T02:27:14;8.18;;;6.30;;
57778;SDS011;43608;49.486;9.640;2024-03-02T02:27:45;8.32;;;5.97;;
57778;SDS011;43608;49.486;9.640;2024-03-02T02:28:15;9.18;;;6.60;;
57778;SDS011;43608;49.486;9.640;2024-03-02T02:28:46;8.93;;;6.43;;
57778;SDS011;43608;49.486;9.640;2024-03-02T02:29:19;7.97;;;5.70;;
57778;SDS011;43608;49.486;9.640;2024-03-02T02:29:49;8.05;;;5.68;;
57778;SDS011;43608;49.486;9.640;2024-03-02T02:30:24;9.55;;;6.53;;
57778;SDS011;43608;49.486;9.640;2024-03-02T02:30:56;9.05;;;6.35;;
57778;SDS011;43608;49.486;9.640;2024-03-02T02:31:26;7.90;;;5.90;;
57778;SDS011;43608;49.486;9.640;2024-03-02T02:31:57;9.48;;;6.47;;
57778;SDS011;43608;49.486;9.640;2024-03-02T02:32:27;8.45;;;6.15;;
57778;SDS011;43608;49.486;9.640;2024-03-02T02:32:58;10.30;;;6.18;;
57778;SDS011;43608;49.486;9.640;2024-03-02T02:33:28;8.57;;;6.43;;
57778;SDS011;43608;49.486;9.640;2024-03-02T02:33:59;8.43;;;6.32;;
57778;SDS011;43608;49.486;9.640;2024-03-02T02:34:29;9.57;;;6.45;;
57778;SDS011;43608;49.486;9.640;2024-03-02T02:34:59;7.80;;;5.97;;
57778;SDS011;43608;49.486;9.640;2024-03-02T02:35:30;8.27;;;5.97;;
57778;SDS011;43608;49.486;9.640;2024-03-02T02:36:00;8.70;;;6.05;;
57778;SDS011;43608;49.486;9.640;2024-03-02T02:36:31;9.45;;;6.60;;
57778;SDS011;43608;49.486;9.640;2024-03-02T02:37:03;9.38;;;6.72;;
57778;SDS011;43608;49.486;9.640;2024-03-02T02:37:33;8.18;;;6.03;;
57778;SDS011;43608;49.486;9.640;2024-03-02T02:38:04;7.97;;;5.78;;
57778;SDS011;43608;49.486;9.640;2024-03-02T02:38:36;8.80;;;6.60;;
57778;SDS011;43608;49.486;9.640;2024-03-02T02:39:10;8.82;;;6.10;;
57778;SDS011;43608;49.486;9.640;2024-03-02T02:39:43;7.70;;;5.80;;
57778;SDS011;43608;49.486;9.640;2024-03-02T02:40:14;9.15;;;6.45;;
57778;SDS011;43608;49.486;9.640;2024-03-02T02:40:45;8.73;;;5.95;;
57778;SDS011;43608;49.486;9.640;2024-03-02T02:41:15;8.07;;;5.90;;
57778;SDS011;43608;49.486;9.640;2024-03-02T02:41:45;7.82;;;5.78;;
57778;SDS011;43608;49.486;9.640;2024-03-02T02:42:16;8.70;;;6.10;;
57778;SDS011;43608;49.486;9.640;2024-03-02T02:42:46;8.48;;;5.90;;
57778;SDS011;43608;49.486;9.640;2024-03-02T02:43:17;9.30;;;6.03;;
57778;SDS011;43608;49.486;9.640;2024-03-02T02:43:47;7.93;;;5.80;;
57778;SDS011;43608;49.486;9.640;2024-03-02T02:44:18;8.90;;;6.13;;
57778;SDS011;43608;49.486;9.640;2024-03-02T02:44:48;7.25;;;5.70;;
57778;SDS011;43608;49.486;9.640;2024-03-02T02:45:18;8.43;;;5.82;;
57778;SDS011;43608;49.486;9.640;2024-03-02T02:45:49;8.35;;;6.05;;
57778;SDS011;43608;49.486;9.640;2024-03-02T02:46:19;8.15;;;5.95;;
57778;SDS011;43608;49.486;9.640;2024-03-02T02:46:49;8.35;;;5.72;;
57778;SDS011;43608;49.486;9.640;2024-03-02T02:47:20;8.30;;;5.88;;
57778;SDS011;43608;49.486;9.640;2024-03-02T02:47:50;9.10;;;6.30;;
57778;SDS011;43608;49.486;9.640;2024-03-02T02:48:20;7.80;;;5.90;;
57778;SDS011;43608;49.486;9.640;2024-03-02T02:48:51;7.43;;;5.57;;
57778;SDS011;43608;49.486;9.640;2024-03-02T02:49:23;8.80;;;6.07;;
57778;SDS011;43608;49.486;9.640;2024-03-02T02:49:53;7.95;;;5.85;;
57778;SDS011;43608;49.486;9.640;2024-03-02T02:50:23;8.55;;;6.50;;
57778;SDS011;43608;49.486;9.640;2024-03-02T02:50:54;8.55;;;5.72;;
57778;SDS011;43608;49.486;9.640;2024-03-02T02:51:24;7.95;;;5.88;;
57778;SDS011;43608;49.486;9.640;2024-03-02T02:51:55;8.13;;;5.97;;
57778;SDS011;43608;49.486;9.640;2024-03-02T02:52:25;8.82;;;5.85;;
57778;SDS011;43608;49.486;9.640;2024-03-02T02:52:56;8.65;;;6.20;;
57778;SDS011;43608;49.486;9.640;2024-03-02T02:53:26;8.25;;;5.90;;
57778;SDS011;43608;49.486;9.640;2024-03-02T02:53:56;8.82;;;6.38;;
57778;SDS011;43608;49.486;9.640;2024-03-02T02:54:27;9.50;;;6.13;;
57778;SDS011;43608;49.486;9.640;2024-03-02T02:54:57;8.18;;;6.05;;
57778;SDS011;43608;49.486;9.640;2024-03-02T02:55:27;8.00;;;5.80;;
57778;SDS011;43608;49.486;9.640;2024-03-02T02:55:58;8.43;;;6.03;;
57778;SDS011;43608;49.486;9.640;2024-03-02T02:56:28;8.13;;;6.07;;
57778;SDS011;43608;49.486;9.640;2024-03-02T02:56:58;7.65;;;5.53;;
57778;SDS011;43608;49.486;9.640;2024-03-02T02:57:29;7.50;;;5.90;;
57778;SDS011;43608;49.486;9.640;2024-03-02T02:58:01;6.80;;;5.40;;
57778;SDS011;43608;49.486;9.640;2024-03-02T02:58:31;7.47;;;5.75;;
57778;SDS011;43608;49.486;9.640;2024-03-02T02:59:02;8.38;;;6.00;;
57778;SDS011;43608;49.486;9.640;2024-03-02T02:59:32;8.15;;;5.82;;
57778;SDS011;43608;49.486;9.640;2024-03-02T03:00:03;8.52;;;5.88;;
57778;SDS011;43608;49.486;9.640;2024-03-02T03:00:40;8.70;;;6.03;;
57778;SDS011;43608;49.486;9.640;2024-03-02T03:01:10;8.13;;;5.85;;
57778;SDS011;43608;49.486;9.640;2024-03-02T03:01:41;8.57;;;5.90;;
57778;SDS011;43608;49.486;9.640;2024-03-02T03:02:11;8.80;;;6.40;;
57778;SDS011;43608;49.486;9.640;2024-03-02T03:02:41;9.38;;;6.10;;
57778;SDS011;43608;49.486;9.640;2024-03-02T03:03:12;8.70;;;6.38;;
57778;SDS011;43608;49.486;9.640;2024-03-02T03:03:43;7.95;;;5.85;;
57778;SDS011;43608;49.486;9.640;2024-03-02T03:04:14;8.18;;;5.82;;
57778;SDS011;43608;49.486;9.640;2024-03-02T03:04:44;7.40;;;5.70;;
57778;SDS011;43608;49.486;9.640;2024-03-02T03:05:14;8.65;;;6.32;;
57778;SDS011;43608;49.486;9.640;2024-03-02T03:05:45;8.50;;;5.80;;
57778;SDS011;43608;49.486;9.640;2024-03-02T03:06:15;8.52;;;5.85;;
57778;SDS011;43608;49.486;9.640;2024-03-02T03:06:46;9.15;;;6.13;;
57778;SDS011;43608;49.486;9.640;2024-03-02T03:07:16;8.38;;;6.15;;
57778;SDS011;43608;49.486;9.640;2024-03-02T03:07:47;8.85;;;6.00;;
57778;SDS011;43608;49.486;9.640;2024-03-02T03:08:19;7.53;;;5.63;;
57778;SDS011;43608;49.486;9.640;2024-03-02T03:08:50;8.15;;;5.90;;
57778;SDS011;43608;49.486;9.640;2024-03-02T03:09:20;8.85;;;6.05;;
57778;SDS011;43608;49.486;9.640;2024-03-02T03:09:50;8.43;;;6.35;;
57778;SDS011;43608;49.486;9.640;2024-03-02T03:10:21;8.45;;;5.97;;